createdAt,value
2022-09-28T00:02:23.033Z,8.68
2022-09-28T00:04:50.702Z,8.27
2022-09-28T00:07:18.344Z,8.32
2022-09-28T00:09:45.958Z,9.70
2022-09-28T00:12:13.638Z,9.35
2022-09-28T00:14:42.919Z,9.50
2022-09-28T00:17:12.124Z,9.50
2022-09-28T00:19:41.203Z,9.35
2022-09-28T00:22:08.853Z,9.48
2022-09-28T00:24:36.488Z,9.57
2022-09-28T00:27:04.193Z,11.35
2022-09-28T00:29:33.280Z,9.60
2022-09-28T00:32:03.410Z,10.18
2022-09-28T00:34:33.230Z,9.93
2022-09-28T00:37:03.482Z,9.43
2022-09-28T00:39:31.622Z,10.73
2022-09-28T00:42:00.104Z,10.60
2022-09-28T00:44:46.905Z,9.15
2022-09-28T00:47:39.052Z,9.60
2022-09-28T00:50:10.257Z,10.75
2022-09-28T00:52:42.186Z,10.73
2022-09-28T00:55:13.324Z,10.00
2022-09-28T00:57:42.809Z,9.80
2022-09-28T01:00:11.843Z,9.82
2022-09-28T01:02:39.442Z,10.00
2022-09-28T01:05:08.905Z,9.90
2022-09-28T01:07:36.829Z,7.85
2022-09-28T01:10:06.894Z,11.52
2022-09-28T01:12:34.547Z,9.85
2022-09-28T01:15:02.505Z,9.85
2022-09-28T01:17:37.605Z,10.75
2022-09-28T01:20:27.966Z,9.75
2022-09-28T01:23:51.166Z,10.15
2022-09-28T01:26:58.196Z,10.75
2022-09-28T01:29:36.012Z,10.30
2022-09-28T01:32:12.313Z,9.27
2022-09-28T01:34:46.290Z,11.15
2022-09-28T01:37:16.272Z,10.45
2022-09-28T01:39:46.949Z,11.57
2022-09-28T01:42:18.790Z,10.98
2022-09-28T01:44:50.533Z,13.98
2022-09-28T01:47:21.755Z,13.05
2022-09-28T01:49:52.893Z,12.55
2022-09-28T01:52:23.540Z,14.10
2022-09-28T01:54:56.206Z,11.85
2022-09-28T01:57:26.915Z,14.57
2022-09-28T01:59:59.806Z,13.32
2022-09-28T02:02:32.457Z,16.05
2022-09-28T02:05:04.372Z,13.20
2022-09-28T02:07:38.045Z,14.60
2022-09-28T02:10:10.376Z,13.32
2022-09-28T02:12:41.701Z,13.02
2022-09-28T02:15:15.375Z,13.05
2022-09-28T02:17:43.327Z,13.52
2022-09-28T02:20:11.936Z,15.32
2022-09-28T02:22:42.976Z,14.30
2022-09-28T02:25:13.001Z,13.20
2022-09-28T02:27:43.825Z,12.82
2022-09-28T02:30:13.406Z,18.52
2022-09-28T02:32:43.593Z,13.07
2022-09-28T02:35:15.805Z,13.35
2022-09-28T02:37:43.551Z,15.00
2022-09-28T02:40:14.951Z,15.23
2022-09-28T02:42:51.743Z,13.88
2022-09-28T02:45:28.980Z,18.38
2022-09-28T02:48:04.428Z,17.05
2022-09-28T02:50:38.478Z,15.25
2022-09-28T02:53:23.200Z,16.35
2022-09-28T02:56:01.303Z,15.25
2022-09-28T02:58:36.807Z,16.85
2022-09-28T03:01:13.637Z,16.27
2022-09-28T03:03:48.122Z,16.63
2022-09-28T03:06:21.529Z,16.08
2022-09-28T03:08:54.043Z,17.80
2022-09-28T03:11:24.426Z,17.55
2022-09-28T03:13:52.283Z,16.20
2022-09-28T03:16:21.460Z,17.60
2022-09-28T03:18:49.355Z,16.50
2022-09-28T03:21:17.354Z,16.50
2022-09-28T03:23:45.129Z,17.13
2022-09-28T03:26:13.702Z,16.80
2022-09-28T03:28:41.854Z,17.20
2022-09-28T03:31:09.799Z,16.13
2022-09-28T03:33:38.935Z,16.45
2022-09-28T03:36:08.626Z,17.75
2022-09-28T03:38:36.409Z,16.85
2022-09-28T03:41:04.262Z,18.88
2022-09-28T03:43:32.008Z,19.75
2022-09-28T03:46:01.352Z,20.67
2022-09-28T03:48:32.708Z,19.90
2022-09-28T03:51:03.463Z,21.40
2022-09-28T03:53:31.480Z,23.02
2022-09-28T03:56:03.836Z,22.15
2022-09-28T03:58:31.550Z,22.00
2022-09-28T04:01:03.344Z,21.33
2022-09-28T04:03:31.185Z,20.92
2022-09-28T04:05:59.337Z,23.20
2022-09-28T04:08:29.182Z,20.67
2022-09-28T04:10:57.573Z,23.17
2022-09-28T04:13:25.598Z,20.35
2022-09-28T04:15:54.012Z,19.08
2022-09-28T04:18:22.083Z,16.67
2022-09-28T04:20:49.761Z,20.20
2022-09-28T04:23:17.529Z,21.50
2022-09-28T04:25:53.450Z,16.15
2022-09-28T04:28:38.496Z,17.00
2022-09-28T04:31:10.154Z,17.23
2022-09-28T04:33:37.871Z,15.63
2022-09-28T04:36:06.034Z,16.88
2022-09-28T04:38:51.908Z,15.73
2022-09-28T04:41:22.850Z,16.40
2022-09-28T04:43:50.714Z,17.33
2022-09-28T04:46:18.478Z,17.13
2022-09-28T04:48:46.477Z,17.08
2022-09-28T04:51:14.277Z,17.30
2022-09-28T04:53:41.934Z,17.65
2022-09-28T04:56:12.134Z,18.13
2022-09-28T04:58:41.442Z,17.98
2022-09-28T05:01:12.499Z,16.10
2022-09-28T05:03:40.247Z,18.38
2022-09-28T05:06:08.246Z,19.25
2022-09-28T05:08:36.501Z,17.02
2022-09-28T05:11:05.760Z,19.17
2022-09-28T05:13:35.616Z,16.25
2022-09-28T05:16:05.733Z,18.83
2022-09-28T05:18:33.729Z,18.83
2022-09-28T05:21:01.973Z,16.85
2022-09-28T05:23:29.707Z,17.52
2022-09-28T05:25:57.365Z,18.50
2022-09-28T05:28:28.402Z,17.67
2022-09-28T05:30:59.862Z,17.05
2022-09-28T05:33:29.543Z,19.67
2022-09-28T05:36:01.102Z,15.85
2022-09-28T05:38:29.857Z,15.50
2022-09-28T05:40:57.967Z,16.30
2022-09-28T05:43:25.708Z,15.60
2022-09-28T05:45:55.819Z,17.35
2022-09-28T05:48:23.880Z,17.20
2022-09-28T05:50:54.045Z,16.20
2022-09-28T05:53:21.797Z,16.50
2022-09-28T05:55:49.495Z,15.20
2022-09-28T05:58:17.487Z,17.20
2022-09-28T06:00:45.292Z,15.70
2022-09-28T06:03:14.862Z,17.13
2022-09-28T06:05:42.754Z,17.17
2022-09-28T06:08:11.985Z,15.60
2022-09-28T06:10:40.229Z,16.58
2022-09-28T06:13:08.496Z,17.30
2022-09-28T06:15:37.886Z,18.00
2022-09-28T06:18:06.838Z,16.60
2022-09-28T06:20:36.517Z,18.20
2022-09-28T06:23:04.549Z,15.80
2022-09-28T06:25:33.614Z,18.27
2022-09-28T06:28:02.466Z,16.30
2022-09-28T06:30:33.483Z,16.10
2022-09-28T06:33:02.284Z,16.80
2022-09-28T06:35:31.594Z,16.33
2022-09-28T06:37:59.806Z,16.35
2022-09-28T06:40:28.001Z,18.83
2022-09-28T06:42:58.299Z,18.25
2022-09-28T06:45:26.544Z,18.08
2022-09-28T06:47:56.594Z,14.95
2022-09-28T06:50:24.795Z,16.58
2022-09-28T06:52:53.860Z,16.40
2022-09-28T06:55:21.814Z,16.70
2022-09-28T06:58:00.171Z,17.70
2022-09-28T07:00:28.792Z,16.30
2022-09-28T07:02:56.518Z,17.73
2022-09-28T07:05:27.253Z,15.73
2022-09-28T07:07:56.452Z,16.42
2022-09-28T07:10:24.748Z,13.48
2022-09-28T07:12:52.894Z,17.25
2022-09-28T07:15:22.658Z,13.00
2022-09-28T07:17:59.678Z,15.65
2022-09-28T07:20:30.415Z,15.30
2022-09-28T07:23:08.817Z,14.68
2022-09-28T07:25:45.443Z,13.80
2022-09-28T07:28:13.322Z,14.10
2022-09-28T07:30:44.255Z,15.40
2022-09-28T07:33:14.519Z,14.18
2022-09-28T07:35:43.007Z,15.77
2022-09-28T07:38:12.361Z,15.13
2022-09-28T07:40:57.904Z,16.75
2022-09-28T07:43:25.626Z,13.75
2022-09-28T07:45:55.659Z,16.60
2022-09-28T07:48:23.840Z,15.07
2022-09-28T07:50:52.271Z,15.60
2022-09-28T07:53:20.253Z,14.10
2022-09-28T07:55:52.130Z,13.98
2022-09-28T07:58:20.706Z,15.00
2022-09-28T08:00:49.079Z,14.15
2022-09-28T08:03:18.911Z,13.85
2022-09-28T08:05:47.408Z,12.93
2022-09-28T08:08:15.367Z,14.75
2022-09-28T08:10:46.807Z,12.68
2022-09-28T08:13:16.301Z,12.18
2022-09-28T08:15:44.134Z,13.90
2022-09-28T08:18:11.908Z,11.23
2022-09-28T08:20:58.452Z,14.30
2022-09-28T08:23:26.154Z,13.82
2022-09-28T08:25:55.013Z,14.63
2022-09-28T08:28:23.794Z,13.43
2022-09-28T08:30:51.916Z,10.82
2022-09-28T08:33:21.212Z,12.50
2022-09-28T08:35:57.483Z,12.80
2022-09-28T08:38:25.453Z,12.25
2022-09-28T08:41:01.354Z,11.65
2022-09-28T08:43:54.477Z,11.60
2022-09-28T08:46:27.032Z,11.80
2022-09-28T08:49:20.761Z,9.73
2022-09-28T08:51:51.470Z,9.93
2022-09-28T08:54:27.095Z,9.93
2022-09-28T08:56:56.926Z,10.77
2022-09-28T08:59:26.617Z,9.07
2022-09-28T09:01:58.110Z,9.88
2022-09-28T09:04:25.986Z,9.13
2022-09-28T09:07:07.166Z,8.02
2022-09-28T09:09:44.333Z,9.50
2022-09-28T09:12:18.344Z,8.50
2022-09-28T09:15:08.737Z,7.55
2022-09-28T09:17:43.981Z,6.53
2022-09-28T09:20:20.164Z,5.93
2022-09-28T09:23:00.000Z,7.35
2022-09-28T09:25:29.694Z,8.13
2022-09-28T09:28:12.287Z,8.55
2022-09-28T09:30:45.693Z,7.63
2022-09-28T09:33:38.015Z,5.65
2022-09-28T09:36:14.890Z,5.55
2022-09-28T09:38:51.682Z,7.47
2022-09-28T09:41:27.164Z,7.32
2022-09-28T09:44:22.274Z,6.78
2022-09-28T09:46:53.570Z,7.03
2022-09-28T09:49:23.742Z,8.40
2022-09-28T09:51:54.471Z,6.72
2022-09-28T09:54:26.642Z,7.18
2022-09-28T09:56:57.572Z,7.65
2022-09-28T09:59:28.856Z,7.65
2022-09-28T10:01:57.206Z,8.63
2022-09-28T10:04:27.840Z,7.90
2022-09-28T10:07:00.193Z,10.90
2022-09-28T10:09:31.966Z,8.75
2022-09-28T10:11:59.679Z,9.50
2022-09-28T10:14:27.836Z,7.18
2022-09-28T10:16:58.264Z,10.10
2022-09-28T10:19:31.694Z,7.05
2022-09-28T10:22:01.848Z,8.80
2022-09-28T10:24:34.982Z,8.00
2022-09-28T10:27:07.327Z,6.80
2022-09-28T10:29:43.267Z,6.32
2022-09-28T10:32:23.812Z,3.45
2022-09-28T10:34:52.187Z,4.93
2022-09-28T10:37:20.432Z,5.20
2022-09-28T10:39:52.221Z,3.30
2022-09-28T10:42:22.113Z,10.88
2022-09-28T10:44:55.816Z,3.92
2022-09-28T10:48:26.040Z,2.90
2022-09-28T10:53:59.860Z,2.88
2022-09-28T10:56:29.635Z,4.28
2022-09-28T10:58:57.952Z,3.10
2022-09-28T11:01:29.606Z,3.50
2022-09-28T11:03:58.625Z,4.82
2022-09-28T11:06:28.154Z,3.70
2022-09-28T11:08:59.208Z,4.20
2022-09-28T11:11:27.097Z,3.55
2022-09-28T11:13:56.994Z,2.65
2022-09-28T11:16:28.607Z,3.15
2022-09-28T11:18:56.862Z,2.97
2022-09-28T11:21:26.617Z,2.88
2022-09-28T11:24:06.976Z,3.08
2022-09-28T11:26:40.792Z,1.98
2022-09-28T11:31:03.774Z,3.73
2022-09-28T11:33:34.032Z,2.90
2022-09-28T11:36:27.023Z,2.17
2022-09-28T11:39:00.506Z,1.85
2022-09-28T11:41:43.161Z,1.88
2022-09-28T11:44:33.371Z,2.72
2022-09-28T11:47:14.858Z,2.70
2022-09-28T11:49:46.134Z,3.20
2022-09-28T11:53:54.711Z,0.80
2022-09-28T11:56:32.517Z,2.53
2022-09-28T11:59:03.963Z,1.00
2022-09-28T12:01:36.559Z,1.27
2022-09-28T12:04:07.925Z,0.90
2022-09-28T12:06:40.442Z,1.45
2022-09-28T12:09:23.295Z,1.05
2022-09-28T12:16:37.524Z,1.20
2022-09-28T12:18:50.126Z,1.63
2022-09-28T12:21:32.685Z,2.35
2022-09-28T12:24:04.968Z,0.68
2022-09-28T12:26:37.889Z,0.73
2022-09-28T12:29:11.579Z,0.63
2022-09-28T12:31:45.246Z,1.10
2022-09-28T12:34:13.220Z,2.33
2022-09-28T12:36:47.430Z,2.35
2022-09-28T12:39:46.840Z,0.70
2022-09-28T12:42:29.142Z,1.00
2022-09-28T12:45:10.370Z,1.02
2022-09-28T12:48:11.567Z,2.42
2022-09-28T12:50:52.608Z,1.85
2022-09-28T12:53:38.850Z,0.77
2022-09-28T12:58:21.184Z,2.53
2022-09-28T13:00:53.747Z,0.88
2022-09-28T13:03:37.126Z,1.10
